Accueil
METAR-TAF:

METAR-TAF

Aéroports :

Bruxelles, Belgique

Aéroport de Bruxelles. Zaventem

latitude: 50-54N, longitude: 004-32E, altitude: 55 m

Observation

Le bulletin a été fait il y a 26 minutes, à 16:20 UTC
Vent 8 kt de ouest
Température 19°C
Humidité 60%
Pression 1019 hPa
Visibilité 10 km ou plus
Quelques nuages à une hauteur de 4100 ft

METAR: EBBR 191620Z 28008KT 9999 FEW041 19/11 Q1019 NOSIG

Heure: 18:46 (16:46 UTC)

Prévision

Le bulletin a été fait il y a 5 heures et 36 minutes, à 11:10 UTC
Prévision valable du 19 à 12 UTC au 20 à 18 UTC
Vent 10 kt de ouest/sud-ouest
Visibilité 10 km ou plus
Quelques nuages à une hauteur de 2500 ft
Nuages épars à une hauteur de 4000 ft
Probabilité 30% :
Temporairement
du 19 à 12 UTC au 19 à 14 UTC
Vent 15 kt de ouest avec des rafales jusqu'à 25 kt
Visibilité: 4500 m
averses de pluie

TAF: EBBR 191110Z 1912/2018 24010KT 9999 FEW025 SCT040 PROB30 TEMPO 1912/1914 27015G25KT 4500 SHRA

Observations et prévisions météorologiques de plus de 4000 aéroports (messages METAR et TAF).

Les stations disponibles sont représentées par des disques jaunes et rouges sur la carte.

Passer la souris dessus pour voir le nom de la station.

Cliquer dessus pour voir les observations et prévisions météorologiques.

Pour changer de carte: cliquez sur les boutons verts avec une croix noire pour zoomer, sur le bouton vert avec un tiret pour effectuer un zoom arrière, ou sur les flèches vertes pour les cartes adjacentes.


METAR-TAF: